Maple Plain, Minnesota
Current Conditions -  °F | °C
As of 11:55 AM on Tuesday 21 Oct 2014 (Local Time) from KCFE Reporting Station
Clear Clear  
Wind Chill: 52°   Ceiling: Unl
Heat Index: 52°   Visibility: 10mi
Dew Point: 38°   Wind: 10mph
Humidity: 60%   Direction: 110°ESE
Pressure: 30.19"   Gusts: NA
Location:  45.01°N, 93.66°W
Report Text: KCFE 211655Z AUTO 11009KT 10SM CLR 11/04 A3019 RMK AO2 T01100036
Loading
Personal Weather Stations






























Interactive Weather Map
Tropical Storm Tracking
New forecast layout! Learn more

10-Day Weather Forecast

Advertisements
Track Severe Weather on mobile